»·PEaware :: N733EV KCMA-KSNA

N733EV :: KCMA-KSNA

FLIGHT INFORMATION

Flight Status: Arrived
Operator: Privately registered:
United States
More flights under this callsign
Pilot: John P. (30446)
Aircraft: CESSNA 172 SKYHAWK
(C172)
More flights by this aircraft type
Origin: KCMA Camarillo
United States
Destination: KSNA John Wayne-Orange Co
United States
More flights between these airports :: More routes between these airports
Route: SOUTHEAST
File this flight plan on PilotEdge
Remarks:
Altitude:
(Current/Filed)
5,500ft
Speed:
(Current/Filed)
20kts
Departed: 10-Jan-21 10:04 AM
Arrived: 10-Jan-21 10:51 AM
Distance/Time
Traveled:
69nm/0:46
Distance/Time
To Go:
Arrived

Flight Plot

Page will automatically refresh every two minutes.

Flight plan parsing failed; only flown route is shown


Map Options




Map Legend


Flown Route
Filed Route
Departure Airport
Arrival Airport
Navaid (VOR, NDB)
Fix

Horizontal Profiles

Position Reports

Time Latitude Longitude Heading Altitude Ground
Speed
10-Jan-21 09:50 34.210556 -119.089465 270 81ft 0kts
10-Jan-21 09:51 34.210556 -119.089465 270 81ft 0kts
10-Jan-21 09:52 34.210763 -119.089757 355 81ft 0kts
10-Jan-21 09:53 34.210984 -119.091198 271 81ft 11kts
10-Jan-21 09:54 34.211038 -119.096442 270 81ft 16kts
10-Jan-21 09:55 34.211154 -119.100590 288 81ft 8kts
10-Jan-21 09:56 34.212142 -119.102637 300 81ft 9kts
10-Jan-21 09:57 34.212816 -119.104357 80 81ft 0kts
10-Jan-21 09:58 34.212816 -119.104357 80 81ft 0kts
10-Jan-21 09:59 34.212816 -119.104357 80 81ft 0kts
10-Jan-21 10:00 34.212816 -119.104357 80 81ft 0kts
10-Jan-21 10:01 34.213027 -119.104076 353 81ft 0kts
10-Jan-21 10:02 34.213730 -119.104017 37 81ft 15kts
10-Jan-21 10:03 34.213135 -119.083601 94 783ft 71kts
10-Jan-21 10:04 34.211745 -119.056186 79 1593ft 90kts
10-Jan-21 10:05 34.215626 -119.024780 75 2339ft 95kts
10-Jan-21 10:06 34.217302 -118.994454 80 3227ft 86kts
10-Jan-21 10:07 34.217970 -118.967549 78 4102ft 74kts
10-Jan-21 10:08 34.218225 -118.944804 76 4854ft 70kts
10-Jan-21 10:09 34.218304 -118.916326 80 5494ft 98kts
10-Jan-21 10:10 34.218819 -118.881203 80 5540ft 104kts
10-Jan-21 10:11 34.219286 -118.846511 80 5541ft 102kts
10-Jan-21 10:12 34.219721 -118.812043 80 5541ft 102kts
10-Jan-21 10:13 34.220118 -118.777597 80 5540ft 102kts
10-Jan-21 10:14 34.220439 -118.742963 80 5540ft 103kts
10-Jan-21 10:15 34.220690 -118.707953 80 5540ft 104kts
10-Jan-21 10:16 34.220889 -118.672507 79 5540ft 105kts
10-Jan-21 10:17 34.221054 -118.636685 79 5540ft 107kts
10-Jan-21 10:18 34.220939 -118.600468 92 5535ft 112kts
10-Jan-21 10:19 34.201016 -118.569367 143 5541ft 122kts
10-Jan-21 10:20 34.169683 -118.553652 158 5540ft 123kts
10-Jan-21 10:21 34.138032 -118.538493 157 5540ft 121kts
10-Jan-21 10:22 34.106864 -118.523456 157 5540ft 120kts
10-Jan-21 10:23 34.075851 -118.508432 157 5540ft 119kts
10-Jan-21 10:24 34.044848 -118.493458 157 5509ft 121kts
10-Jan-21 10:25 34.013955 -118.477642 153 5501ft 119kts
10-Jan-21 10:26 33.983550 -118.461111 153 5502ft 119kts
10-Jan-21 10:27 33.953197 -118.444661 153 5502ft 120kts
10-Jan-21 10:28 33.923721 -118.426440 136 5503ft 118kts
10-Jan-21 10:29 33.898582 -118.400576 135 5501ft 118kts
10-Jan-21 10:30 33.877856 -118.370654 125 5499ft 116kts
10-Jan-21 10:31 33.853433 -118.344389 134 5498ft 117kts
10-Jan-21 10:32 33.829184 -118.317962 134 5498ft 117kts
10-Jan-21 10:33 33.804867 -118.291399 134 5499ft 117kts
10-Jan-21 10:34 33.780714 -118.264986 134 5501ft 117kts
10-Jan-21 10:35 33.756528 -118.238503 134 5504ft 117kts
10-Jan-21 10:36 33.733777 -118.210830 117 5495ft 106kts
10-Jan-21 10:37 33.722188 -118.180514 102 4773ft 98kts
10-Jan-21 10:38 33.713443 -118.146450 102 4503ft 120kts
10-Jan-21 10:39 33.701458 -118.109706 111 4503ft 117kts
10-Jan-21 10:40 33.685316 -118.075591 116 4171ft 114kts
10-Jan-21 10:41 33.669746 -118.042780 116 3468ft 112kts
10-Jan-21 10:42 33.656415 -118.009546 100 2766ft 109kts
10-Jan-21 10:43 33.659803 -117.974684 83 2381ft 107kts
10-Jan-21 10:45 33.662846 -117.940704 85 2312ft 97kts
10-Jan-21 10:46 33.662297 -117.908192 76 1426ft 100kts
10-Jan-21 10:47 33.676938 -117.883365 36 987ft 71kts
10-Jan-21 10:48 33.692942 -117.876556 28 1070ft 70kts
10-Jan-21 10:49 33.703969 -117.861507 115 1169ft 80kts
10-Jan-21 10:50 33.685820 -117.862515 204 213ft 71kts
10-Jan-21 10:51 33.678108 -117.868366 298 60ft 0kts
10-Jan-21 10:52 33.678108 -117.868366 298 60ft 0kts
10-Jan-21 10:53 33.676633 -117.869643 207 60ft 17kts
10-Jan-21 10:54 33.673904 -117.871839 198 60ft 12kts
10-Jan-21 10:55 33.672613 -117.873091 27 60ft 0kts
10-Jan-21 10:56 33.672631 -117.873079 31 60ft 0kts
10-Jan-21 10:57 33.672631 -117.873079 31 60ft 0kts
10-Jan-21 10:58 33.672631 -117.873079 31 60ft 0kts
10-Jan-21 10:58 33.672631 -117.873079 31 60ft 0kts
10-Jan-21 10:59 33.672631 -117.873079 31 60ft 0kts
10-Jan-21 11:00 33.672631 -117.873079 31 60ft 0kts
10-Jan-21 11:02 33.672631 -117.873079 31 60ft 0kts
10-Jan-21 11:03 33.672631 -117.873079 31 60ft 0kts
10-Jan-21 11:03 33.672631 -117.873079 31 60ft 0kts
10-Jan-21 11:04 33.672631 -117.873079 31 60ft 0kts

Navigation Log

Ident Type
Flight plan parsing failed, navigation log unavailable